The Villages, FL

3:03 PM EST on February 22, 2017 (GMT -0500)
Village of Polo Ridge | | Change Station

Elev 89 ft 28.93 °N, 82.01 °W | Updated 4 seconds ago

Rain
Rain
65.3 °F
Feels Like 65.3 °F
N
8.0
Wind Variable Wind from ENE
Gusts 12.0 mph

Today
High -- | Low -- °F
--% Chance of Precip.
Yesterday
High -- | Low -- °F
Precip. -- in
Pressure 29.70 in
Visibility 8.0 miles
Clouds Overcast 9000 ft
Dew Point 64 °F
Humidity 94%
Rainfall 0.20 in
Snow Depth Not available.
7:00 AM 6:23 PM
Waning Crescent, 15% visible
METAR KLEE 221953Z 08012KT 8SM -RA OVC090 19/17 A2971 RMK AO2 SLP058 P0005 T01890172
Pressure 29.70 in
Visibility 8.0 miles
Clouds Overcast 9000 ft
Dew Point 64 °F
Humidity 94%
Rainfall 0.20 in
Snow Depth Not available.
7:00 AM 6:23 PM
Waning Crescent, 15% visible
METAR KLEE 221953Z 08012KT 8SM -RA OVC090 19/17 A2971 RMK AO2 SLP058 P0005 T01890172

Get Your Daily Forecast Email!

Thanks for signing up!

Be on the lookout for a verification email in your inbox.

You'll start receiving the daily forecast at 8 AM.

×

10-Day Weather Forecast

Almanac

Astronomy

Feb. 22, 2017 Rise Set
Actual Time
Civil Twilight
Nautical Twilight
Astronomical Twilight
Moon
Length of Visible Light
Length of Day
Tomorrow will be .
, % of the Moon is Illuminated

Today's Extremes

State Highs State Lows

Community

WunderPhotos

Upload Photos

1,962,540 photos uploaded!

WunderBlog® & News

Nearby

Air Quality

  Air Quality AQ Index Pollutant
Not available.

Snow Depth

Station Depth Elevation

Earthquake Activity

City Distance Mag. Time & Date
Minimum magnitude displayed is 2.5.

Coastal Water Temperatures

Place Temperature

Stations

Nearby Weather Stations

Station Location Temp. Windchill Dew Point Humidity Wind Precip. Elev Updated Type
                   

Watches & Warnings

There are currently no watches in effect.